createdAt,value
2023-04-16T00:01:18.802Z,9.63
2023-04-16T00:06:23.744Z,7.43
2023-04-16T00:11:31.201Z,7.88
2023-04-16T00:16:36.118Z,7.78
2023-04-16T00:21:41.062Z,9.82
2023-04-16T00:26:48.525Z,9.35
2023-04-16T00:31:53.399Z,7.60
2023-04-16T00:36:58.200Z,8.25
2023-04-16T00:42:05.887Z,7.07
2023-04-16T00:47:10.815Z,7.18
2023-04-16T00:52:15.770Z,7.65
2023-04-16T00:57:24.355Z,7.95
2023-04-16T01:02:29.541Z,7.53
2023-04-16T01:07:34.598Z,8.45
2023-04-16T01:12:42.103Z,7.68
2023-04-16T01:17:47.743Z,7.22
2023-04-16T01:22:55.390Z,7.55
2023-04-16T01:28:00.490Z,7.57
2023-04-16T01:33:05.606Z,7.20
2023-04-16T01:38:13.063Z,7.63
2023-04-16T01:43:17.851Z,7.55
2023-04-16T01:48:22.672Z,6.60
2023-04-16T01:53:30.174Z,7.45
2023-04-16T01:58:35.830Z,6.95
2023-04-16T02:03:40.966Z,7.25
2023-04-16T02:08:48.498Z,6.15
2023-04-16T02:13:53.379Z,6.25
2023-04-16T02:18:58.087Z,6.50
2023-04-16T02:24:05.374Z,6.05
2023-04-16T02:29:10.324Z,6.57
2023-04-16T02:34:15.302Z,5.80
2023-04-16T02:39:22.765Z,5.50
2023-04-16T02:44:27.616Z,5.70
2023-04-16T02:49:32.295Z,5.38
2023-04-16T02:54:39.758Z,5.47
2023-04-16T02:59:44.506Z,4.97
2023-04-16T03:04:49.281Z,5.20
2023-04-16T03:09:56.559Z,4.70
2023-04-16T03:15:01.348Z,4.28
2023-04-16T03:20:06.419Z,5.13
2023-04-16T03:25:14.185Z,4.45
2023-04-16T03:30:18.991Z,4.53
2023-04-16T03:35:23.920Z,4.00
2023-04-16T03:40:31.282Z,4.50
2023-04-16T03:45:36.109Z,4.30
2023-04-16T03:50:40.816Z,4.60
2023-04-16T03:55:48.509Z,4.47
2023-04-16T04:00:53.333Z,3.85
2023-04-16T04:05:58.078Z,4.50
2023-04-16T04:11:05.390Z,4.82
2023-04-16T04:16:10.506Z,4.43
2023-04-16T04:21:15.220Z,4.03
2023-04-16T04:26:22.714Z,4.93
2023-04-16T04:31:27.563Z,4.18
2023-04-16T04:36:32.633Z,8.00
2023-04-16T04:41:39.972Z,8.57
2023-04-16T04:46:44.629Z,5.38
2023-04-16T04:51:49.441Z,4.30
2023-04-16T04:56:56.832Z,3.92
2023-04-16T05:02:02.769Z,4.40
2023-04-16T05:07:07.545Z,4.47
2023-04-16T05:12:14.971Z,3.97
2023-04-16T05:17:19.784Z,3.95
2023-04-16T05:22:24.643Z,3.72
2023-04-16T05:27:31.974Z,4.28
2023-04-16T05:32:36.851Z,3.97
2023-04-16T05:37:41.632Z,4.05
2023-04-16T05:42:48.963Z,6.05
2023-04-16T05:47:53.974Z,4.30
2023-04-16T05:52:58.691Z,3.97
2023-04-16T05:58:06.143Z,3.70
2023-04-16T06:03:11.071Z,4.20
2023-04-16T06:08:15.862Z,3.42
2023-04-16T06:13:23.196Z,4.18
2023-04-16T06:18:27.916Z,3.55
2023-04-16T06:23:32.620Z,4.72
2023-04-16T06:28:39.980Z,4.50
2023-04-16T06:33:44.758Z,4.28
2023-04-16T06:38:49.519Z,5.00
2023-04-16T06:43:56.802Z,5.68
2023-04-16T06:49:01.585Z,6.88
2023-04-16T06:54:06.503Z,5.72
2023-04-16T06:59:13.808Z,5.45
2023-04-16T07:04:18.685Z,4.13
2023-04-16T07:09:23.469Z,4.30
2023-04-16T07:14:30.762Z,8.07
2023-04-16T07:19:35.936Z,18.38
2023-04-16T07:24:40.707Z,37.45
2023-04-16T07:29:50.593Z,6.22
2023-04-16T07:40:03.180Z,26.38
2023-04-16T07:45:18.452Z,8.82
2023-04-16T07:50:23.288Z,4.30
2023-04-16T07:55:28.088Z,6.05
2023-04-16T08:00:35.526Z,4.78
2023-04-16T08:05:40.256Z,4.60
2023-04-16T08:10:44.994Z,14.95
2023-04-16T08:15:52.386Z,4.00
2023-04-16T08:20:57.183Z,3.08
2023-04-16T08:26:01.947Z,1.98
2023-04-16T08:31:14.299Z,1.30
2023-04-16T08:36:19.083Z,1.90
2023-04-16T08:41:24.855Z,2.42
2023-04-16T08:46:33.023Z,3.97
2023-04-16T08:51:38.271Z,3.20
2023-04-16T08:56:44.654Z,3.30
2023-04-16T09:01:52.796Z,3.72
2023-04-16T09:06:58.184Z,2.55
2023-04-16T09:12:03.048Z,3.45
2023-04-16T09:17:10.530Z,1.70
2023-04-16T09:22:15.372Z,1.50
2023-04-16T09:27:20.301Z,0.85
2023-04-16T09:32:31.518Z,1.55
2023-04-16T09:37:36.373Z,1.80
2023-04-16T09:42:41.427Z,2.00
2023-04-16T09:47:49.076Z,1.50
2023-04-16T09:52:54.107Z,1.20
2023-04-16T09:58:02.113Z,1.20
2023-04-16T10:03:11.058Z,1.13
2023-04-16T10:08:16.436Z,1.40
2023-04-16T10:13:21.247Z,2.20
2023-04-16T10:18:37.700Z,1.23
2023-04-16T10:23:43.224Z,1.40
2023-04-16T10:28:48.192Z,2.35
2023-04-16T10:33:59.955Z,1.00
2023-04-16T10:39:04.692Z,1.00
2023-04-16T10:44:10.472Z,1.00
2023-04-16T10:49:21.725Z,1.20
2023-04-16T10:54:27.621Z,1.20
2023-04-16T10:59:33.725Z,1.00
2023-04-16T11:04:41.730Z,0.80
2023-04-16T11:09:50.839Z,0.93
2023-04-16T11:14:56.287Z,1.10
2023-04-16T11:20:04.017Z,1.30
2023-04-16T11:25:24.595Z,1.30
2023-04-16T11:30:33.534Z,1.08
2023-04-16T11:35:41.748Z,0.90
2023-04-16T11:40:48.098Z,1.30
2023-04-16T11:46:10.061Z,0.57
2023-04-16T11:51:22.156Z,0.90
2023-04-16T11:56:33.954Z,0.90
2023-04-16T12:01:39.730Z,0.65
2023-04-16T12:07:07.109Z,0.70
2023-04-16T12:12:26.654Z,0.60
2023-04-16T12:17:31.476Z,0.85
2023-04-16T12:22:39.526Z,1.10
2023-04-16T12:27:45.848Z,1.00
2023-04-16T12:32:52.144Z,0.80
2023-04-16T12:37:59.955Z,0.68
2023-04-16T12:43:04.817Z,0.75
2023-04-16T12:48:10.550Z,0.88
2023-04-16T12:53:17.915Z,0.55
2023-04-16T12:58:22.643Z,0.57
2023-04-16T13:03:27.614Z,0.47
2023-04-16T13:08:35.015Z,0.70
2023-04-16T13:13:39.876Z,0.90
2023-04-16T13:18:44.578Z,0.98
2023-04-16T13:23:51.924Z,0.60
2023-04-16T13:28:56.691Z,0.70
2023-04-16T13:34:01.625Z,1.17
2023-04-16T13:39:11.778Z,0.90
2023-04-16T13:44:16.699Z,1.05
2023-04-16T13:49:21.731Z,1.17
2023-04-16T13:54:29.043Z,1.08
2023-04-16T13:59:33.747Z,0.90
2023-04-16T14:04:38.424Z,1.10
2023-04-16T14:09:45.881Z,0.98
2023-04-16T14:14:50.597Z,1.23
2023-04-16T14:19:55.366Z,1.00
2023-04-16T14:25:02.927Z,1.30
2023-04-16T14:30:14.529Z,1.38
2023-04-16T14:35:19.359Z,1.45
2023-04-16T14:40:26.759Z,1.50
2023-04-16T14:45:32.776Z,2.00
2023-04-16T14:50:39.373Z,1.58
2023-04-16T14:55:46.692Z,2.10
2023-04-16T15:00:51.497Z,1.00
2023-04-16T15:05:57.809Z,1.42
2023-04-16T15:11:05.201Z,2.38
2023-04-16T15:16:09.989Z,0.90
2023-04-16T15:21:30.086Z,0.80
2023-04-16T15:31:44.795Z,1.25
2023-04-16T15:36:49.565Z,1.30
2023-04-16T15:42:01.470Z,1.00
2023-04-16T15:47:10.364Z,1.00
2023-04-16T15:52:15.182Z,1.33
2023-04-16T15:57:19.929Z,1.30
2023-04-16T16:02:27.605Z,1.10
2023-04-16T16:07:32.642Z,1.10
2023-04-16T16:12:37.669Z,0.98
2023-04-16T16:17:45.118Z,1.10
2023-04-16T16:22:50.882Z,4.30
2023-04-16T16:27:55.782Z,2.45
2023-04-16T16:33:03.140Z,4.57
2023-04-16T16:38:09.000Z,1.75
2023-04-16T16:43:14.250Z,1.70
2023-04-16T16:48:22.141Z,1.40
2023-04-16T16:53:27.583Z,1.65
2023-04-16T16:58:32.255Z,1.70
2023-04-16T17:03:39.880Z,1.30
2023-04-16T17:08:44.851Z,1.77
2023-04-16T17:13:49.649Z,1.85
2023-04-16T17:18:57.658Z,2.55
2023-04-16T17:24:05.433Z,2.25
2023-04-16T17:29:10.321Z,2.42
2023-04-16T17:34:19.858Z,3.10
2023-04-16T17:39:25.098Z,3.50
2023-04-16T17:44:29.872Z,3.15
2023-04-16T17:49:37.265Z,6.00
2023-04-16T17:54:45.272Z,6.22
2023-04-16T17:59:53.058Z,13.13
2023-04-16T18:05:00.719Z,8.52
2023-04-16T18:10:05.548Z,6.05
2023-04-16T18:15:10.872Z,2.20
2023-04-16T18:20:19.899Z,2.20
2023-04-16T18:25:33.857Z,2.47
2023-04-16T18:30:40.633Z,2.40
2023-04-16T18:35:48.532Z,2.80
2023-04-16T18:40:53.259Z,3.25
2023-04-16T18:45:58.114Z,3.20
2023-04-16T18:51:05.854Z,2.78
2023-04-16T18:56:11.274Z,2.38
2023-04-16T19:01:16.860Z,3.40
2023-04-16T19:06:24.484Z,3.75
2023-04-16T19:11:29.209Z,3.72
2023-04-16T19:16:33.960Z,3.42
2023-04-16T19:21:41.432Z,3.47
2023-04-16T19:26:46.293Z,2.92
2023-04-16T19:31:51.688Z,3.05
2023-04-16T19:36:59.095Z,4.78
2023-04-16T19:42:04.413Z,3.35
2023-04-16T19:47:09.244Z,3.30
2023-04-16T19:52:16.670Z,3.28
2023-04-16T19:57:21.372Z,3.80
2023-04-16T20:02:26.238Z,3.35
2023-04-16T20:07:33.727Z,2.90
2023-04-16T20:12:38.458Z,3.30
2023-04-16T20:17:43.220Z,2.88
2023-04-16T20:22:50.935Z,3.60
2023-04-16T20:27:55.703Z,3.85
2023-04-16T20:33:00.413Z,4.30
2023-04-16T20:38:07.831Z,3.63
2023-04-16T20:43:14.644Z,3.42
2023-04-16T20:48:19.544Z,3.42
2023-04-16T20:53:27.050Z,3.58
2023-04-16T20:58:34.570Z,3.00
2023-04-16T21:03:39.672Z,3.00
2023-04-16T21:08:47.136Z,2.58
2023-04-16T21:13:51.872Z,3.15
2023-04-16T21:18:56.726Z,3.10
2023-04-16T21:24:04.216Z,3.75
2023-04-16T21:29:09.274Z,2.95
2023-04-16T21:34:14.185Z,3.63
2023-04-16T21:39:22.066Z,2.88
2023-04-16T21:44:29.283Z,3.05
2023-04-16T21:49:33.997Z,2.97
2023-04-16T21:54:41.755Z,3.10
2023-04-16T21:59:46.527Z,3.60
2023-04-16T22:04:51.324Z,3.08
2023-04-16T22:09:59.202Z,5.22
2023-04-16T22:15:04.349Z,6.35
2023-04-16T22:20:12.165Z,12.35
2023-04-16T22:25:19.593Z,10.77
2023-04-16T22:30:24.362Z,7.95
2023-04-16T22:35:29.067Z,16.35
2023-04-16T22:40:36.468Z,7.45
2023-04-16T22:45:41.393Z,7.40
2023-04-16T22:50:48.923Z,9.65
2023-04-16T22:55:56.386Z,7.47
2023-04-16T23:01:01.962Z,6.80
2023-04-16T23:06:06.863Z,7.03
2023-04-16T23:11:14.302Z,6.10
2023-04-16T23:16:19.086Z,5.60
2023-04-16T23:21:23.895Z,19.15
2023-04-16T23:26:31.383Z,18.55
2023-04-16T23:31:36.367Z,18.67
2023-04-16T23:36:41.205Z,14.98
2023-04-16T23:41:48.559Z,7.40
2023-04-16T23:46:53.313Z,5.32
2023-04-16T23:51:58.069Z,7.25
2023-04-16T23:57:05.358Z,7.00
